createdAt,value
2023-02-14T00:02:14.751Z,0.23
2023-02-14T00:07:38.772Z,0.21
2023-02-14T00:13:09.761Z,0.16
2023-02-14T00:18:57.727Z,0.05
2023-02-14T00:24:25.751Z,-0.02
2023-02-14T00:29:50.808Z,-0.11
2023-02-14T00:35:19.022Z,-0.22
2023-02-14T00:40:45.768Z,-0.35
2023-02-14T00:46:10.810Z,-0.39
2023-02-14T00:51:38.752Z,-0.49
2023-02-14T00:57:02.774Z,-0.54
2023-02-14T01:02:27.876Z,-0.60
2023-02-14T01:07:54.811Z,-0.65
2023-02-14T01:13:26.779Z,-0.77
2023-02-14T01:18:52.775Z,-0.87
2023-02-14T01:24:22.763Z,-0.96
2023-02-14T01:29:47.826Z,-1.04
2023-02-14T01:35:11.784Z,-1.13
2023-02-14T01:40:39.980Z,-1.26
2023-02-14T01:46:04.866Z,-1.32
2023-02-14T01:51:31.829Z,-1.40
2023-02-14T01:57:03.801Z,-1.42
2023-02-14T02:02:30.896Z,-1.49
2023-02-14T02:07:55.826Z,-1.52
2023-02-14T02:13:28.817Z,-1.53
2023-02-14T02:19:09.836Z,-1.55
2023-02-14T02:24:50.837Z,-1.57
2023-02-14T02:30:29.095Z,-1.59
2023-02-14T02:36:25.829Z,-1.60
2023-02-14T02:41:59.822Z,-1.62
2023-02-14T02:47:33.843Z,-1.61
2023-02-14T02:53:15.878Z,-1.66
2023-02-14T02:58:46.834Z,-1.74
2023-02-14T03:04:28.960Z,-1.74
2023-02-14T03:10:14.081Z,-1.67
2023-02-14T03:16:00.878Z,-1.62
2023-02-14T03:21:38.905Z,-1.60
2023-02-14T03:27:14.854Z,-1.60
2023-02-14T03:32:49.815Z,-1.60
2023-02-14T03:38:20.989Z,-1.60
2023-02-14T03:43:51.869Z,-1.59
2023-02-14T03:49:21.881Z,-1.64
2023-02-14T03:54:49.840Z,-1.67
2023-02-14T04:00:18.862Z,-1.74
2023-02-14T04:05:45.017Z,-1.79
2023-02-14T04:11:10.842Z,-1.87
2023-02-14T04:16:58.834Z,-1.87
2023-02-14T04:22:23.862Z,-1.98
2023-02-14T04:27:47.905Z,-2.00
2023-02-14T04:33:17.058Z,-1.95
2023-02-14T04:38:40.864Z,-1.90
2023-02-14T04:44:05.864Z,-1.84
2023-02-14T04:49:33.923Z,-1.83
2023-02-14T04:54:58.912Z,-1.84
2023-02-14T05:00:24.974Z,-1.85
2023-02-14T05:05:52.871Z,-1.94
2023-02-14T05:11:16.914Z,-1.99
2023-02-14T05:16:41.977Z,-2.04
2023-02-14T05:22:08.886Z,-2.10
2023-02-14T05:27:34.128Z,-2.19
2023-02-14T05:32:57.920Z,-2.15
2023-02-14T05:38:25.889Z,-2.27
2023-02-14T05:43:50.878Z,-2.21
2023-02-14T05:49:15.902Z,-2.18
2023-02-14T05:54:43.899Z,-2.15
2023-02-14T06:00:08.894Z,-2.15
2023-02-14T06:05:35.152Z,-2.13
2023-02-14T06:11:02.977Z,-2.12
2023-02-14T06:16:26.932Z,-2.13
2023-02-14T06:21:51.917Z,-2.11
2023-02-14T06:27:18.932Z,-2.12
2023-02-14T06:32:43.947Z,-2.15
2023-02-14T06:38:08.946Z,-2.14
2023-02-14T06:43:36.920Z,-2.13
2023-02-14T06:49:00.943Z,-2.13
2023-02-14T06:54:26.887Z,-2.10
2023-02-14T06:59:53.906Z,-2.08
2023-02-14T07:05:19.016Z,-2.06
2023-02-14T07:10:43.944Z,-2.02
2023-02-14T07:16:12.201Z,-1.97
2023-02-14T07:21:35.926Z,-1.95
2023-02-14T07:27:00.917Z,-1.90
2023-02-14T07:32:29.928Z,-1.85
2023-02-14T07:37:54.931Z,-1.79
2023-02-14T07:43:20.277Z,-1.71
2023-02-14T07:48:47.900Z,-1.62
2023-02-14T07:54:11.923Z,-1.55
2023-02-14T07:59:43.929Z,-1.46
2023-02-14T08:05:12.039Z,-1.35
2023-02-14T08:10:35.959Z,-1.27
2023-02-14T08:16:18.239Z,-1.16
2023-02-14T08:21:45.950Z,-1.06
2023-02-14T08:27:10.955Z,-0.95
2023-02-14T08:32:37.021Z,-0.83
2023-02-14T08:38:04.994Z,-0.70
2023-02-14T08:43:33.275Z,-0.57
2023-02-14T08:49:00.078Z,-0.39
2023-02-14T08:54:26.966Z,-0.25
2023-02-14T08:59:51.931Z,-0.05
2023-02-14T09:05:17.980Z,0.08
2023-02-14T09:10:52.926Z,0.22
2023-02-14T09:16:20.036Z,0.40
2023-02-14T09:21:46.175Z,0.58
2023-02-14T09:27:14.010Z,0.72
2023-02-14T09:32:38.950Z,0.97
2023-02-14T09:38:16.951Z,1.20
2023-02-14T09:43:50.970Z,1.40
2023-02-14T09:49:23.074Z,1.60
2023-02-14T09:54:51.134Z,1.77
2023-02-14T10:00:29.975Z,1.98
2023-02-14T10:05:59.957Z,2.15
2023-02-14T10:11:30.991Z,2.32
2023-02-14T10:17:03.012Z,2.62
2023-02-14T10:22:31.987Z,2.79
2023-02-14T10:28:00.045Z,2.93
2023-02-14T10:33:30.014Z,3.07
2023-02-14T10:39:02.983Z,3.31
2023-02-14T11:09:47.915Z,4.48
2023-02-14T11:38:37.000Z,5.77
2023-02-14T11:44:02.010Z,6.01
2023-02-14T11:49:38.008Z,6.22
2023-02-14T11:55:04.989Z,6.58
2023-02-14T12:00:32.997Z,6.84
2023-02-14T12:06:07.027Z,7.02
2023-02-14T12:11:36.128Z,7.08
2023-02-14T12:17:11.102Z,7.12
2023-02-14T12:22:41.034Z,7.18
2023-02-14T12:28:14.055Z,7.25
2023-02-14T12:33:39.041Z,7.35
2023-02-14T12:39:24.023Z,7.51
2023-02-14T12:45:01.074Z,7.69
2023-02-14T12:50:44.031Z,7.88
2023-02-14T12:56:20.088Z,8.07
2023-02-14T13:02:31.119Z,8.35
2023-02-14T13:08:10.044Z,8.61
2023-02-14T13:13:42.155Z,8.87
2023-02-14T13:19:15.057Z,9.06
2023-02-14T13:24:43.068Z,9.35
2023-02-14T13:30:13.125Z,9.71
2023-02-14T13:35:44.084Z,10.20
2023-02-14T13:41:12.068Z,10.44
2023-02-14T13:47:01.071Z,10.91
2023-02-14T13:52:55.067Z,11.19
2023-02-14T13:58:23.071Z,11.54
2023-02-14T14:04:07.146Z,11.65
2023-02-14T14:10:18.111Z,11.88
2023-02-14T14:15:43.091Z,11.99
2023-02-14T14:21:07.088Z,12.16
2023-02-14T14:26:46.096Z,12.34
2023-02-14T14:32:10.153Z,12.46
2023-02-14T14:37:37.081Z,12.42
2023-02-14T14:43:04.077Z,12.49
2023-02-14T14:48:36.230Z,12.55
2023-02-14T14:54:03.125Z,12.62
2023-02-14T14:59:42.135Z,12.60
2023-02-14T15:05:06.084Z,12.55
2023-02-14T15:10:33.097Z,12.45
2023-02-14T15:16:04.114Z,12.35
2023-02-14T15:21:30.164Z,12.26
2023-02-14T15:26:55.176Z,12.18
2023-02-14T15:32:23.292Z,11.94
2023-02-14T15:37:49.132Z,11.81
2023-02-14T15:43:25.145Z,11.39
2023-02-14T15:48:56.123Z,11.10
2023-02-14T15:54:30.132Z,10.83
2023-02-14T15:59:58.206Z,10.60
2023-02-14T16:05:35.156Z,10.27
2023-02-14T16:11:16.153Z,9.93
2023-02-14T16:17:06.162Z,9.56
2023-02-14T16:22:44.126Z,9.25
2023-02-14T16:28:09.235Z,8.97
2023-02-14T16:33:36.154Z,8.71
2023-02-14T16:39:11.165Z,8.43
2023-02-14T16:44:40.594Z,8.21
2023-02-14T16:50:04.294Z,8.02
2023-02-14T16:55:35.141Z,7.90
2023-02-14T17:01:01.470Z,7.71
2023-02-14T17:06:31.150Z,7.59
2023-02-14T17:12:01.192Z,7.39
2023-02-14T17:17:27.190Z,7.25
2023-02-14T17:22:52.176Z,7.13
2023-02-14T17:28:20.166Z,6.99
2023-02-14T17:33:45.273Z,6.84
2023-02-14T17:39:10.205Z,6.71
2023-02-14T17:44:42.203Z,6.63
2023-02-14T17:50:07.188Z,6.52
2023-02-14T17:55:31.183Z,6.40
2023-02-14T18:00:59.444Z,6.29
2023-02-14T18:06:26.183Z,6.17
2023-02-14T18:11:52.181Z,6.04
2023-02-14T18:17:19.216Z,5.93
2023-02-14T18:22:44.215Z,5.84
2023-02-14T18:28:08.220Z,5.75
2023-02-14T18:33:36.190Z,5.69
2023-02-14T18:39:03.210Z,5.60
2023-02-14T18:44:28.225Z,5.54
2023-02-14T18:49:55.264Z,5.49
2023-02-14T18:55:21.248Z,5.42
2023-02-14T19:00:45.265Z,5.36
2023-02-14T19:06:13.252Z,5.32
2023-02-14T19:11:40.213Z,5.29
2023-02-14T19:17:05.241Z,5.23
2023-02-14T19:22:32.240Z,5.19
2023-02-14T19:27:57.333Z,5.14
2023-02-14T19:33:21.245Z,5.09
2023-02-14T19:38:55.232Z,5.05
2023-02-14T19:44:25.035Z,5.02
2023-02-14T19:49:50.229Z,4.99
2023-02-14T19:55:26.253Z,4.97
2023-02-14T20:00:50.252Z,4.91
2023-02-14T20:06:15.336Z,4.89
2023-02-14T20:11:48.264Z,4.87
2023-02-14T20:17:15.258Z,4.89
2023-02-14T20:22:39.267Z,4.91
2023-02-14T20:28:07.240Z,4.86
2023-02-14T20:33:31.272Z,4.83
2023-02-14T20:38:56.277Z,4.78
2023-02-14T20:44:26.357Z,4.73
2023-02-14T20:49:51.281Z,4.65
2023-02-14T20:55:15.298Z,4.61
2023-02-14T21:00:43.287Z,4.56
2023-02-14T21:06:07.297Z,4.47
2023-02-14T21:11:34.287Z,4.39
2023-02-14T21:17:01.311Z,4.34
2023-02-14T21:22:26.264Z,4.24
2023-02-14T21:27:50.275Z,4.17
2023-02-14T21:33:22.304Z,4.09
2023-02-14T21:38:46.286Z,3.92
2023-02-14T21:44:12.398Z,3.88
2023-02-14T21:49:52.348Z,3.88
2023-02-14T21:55:17.275Z,3.87
2023-02-14T22:00:41.333Z,3.87
2023-02-14T22:06:14.294Z,3.88
2023-02-14T22:11:40.305Z,3.85
2023-02-14T22:17:06.299Z,3.81
2023-02-14T22:22:33.308Z,3.72
2023-02-14T22:27:58.301Z,3.67
2023-02-14T22:33:22.314Z,3.63
2023-02-14T22:38:50.330Z,3.58
2023-02-14T22:44:14.333Z,3.54
2023-02-14T22:49:39.339Z,3.46
2023-02-14T22:55:07.318Z,3.39
2023-02-14T23:00:33.406Z,3.28
2023-02-14T23:05:57.312Z,3.19
2023-02-14T23:11:26.304Z,3.08
2023-02-14T23:17:04.322Z,3.01
2023-02-14T23:22:31.362Z,2.93
2023-02-14T23:28:00.344Z,2.86
2023-02-14T23:33:25.461Z,2.80
2023-02-14T23:38:56.333Z,2.70
2023-02-14T23:44:25.339Z,2.59
2023-02-14T23:49:52.360Z,2.50
2023-02-14T23:55:17.334Z,2.37
